Terminal Aerodrome Forecast
Issued by NWS

Home | Current Version | Previous Version | Text Only | Print | Product List | Glossary On
Versions: 1 2 3 4 5 6 7 8 9 10 11 12 13 14 15 16 17 18 19 20 21
000
FTUS41 KGYX 252330
TAFRKD
TAF
KRKD 252330Z 2600/2624 25013KT P6SM SKC
     FM261600 36005KT 5SM -SNRA OVC060
     FM262000 05009G16KT 1/2SM SN FG OVC007
      AMD LTD TO VIS CLD AND WIND=

USA.gov is the U.S. government's official web portal to all federal, state and local government web resources and services.